sensor_id;sensor_type;location;lat;lon;timestamp;pressure;altitude;pressure_sealevel;temperature;humidity
68891;BME280;55932;48.702;8.884;2022-07-11T00:02:24;96820;;;11.7;61.5
68891;BME280;55932;48.702;8.884;2022-07-11T00:07:25;96810;;;11.7;61.5
68891;BME280;55932;48.702;8.884;2022-07-11T00:09:55;96810;;;11.8;61.5
68891;BME280;55932;48.702;8.884;2022-07-11T00:12:26;96810;;;11.8;61.5
68891;BME280;55932;48.702;8.884;2022-07-11T00:14:56;96810;;;11.9;61.5
68891;BME280;55932;48.702;8.884;2022-07-11T00:17:27;96810;;;12;61
68891;BME280;55932;48.702;8.884;2022-07-11T00:24:58;96800;;;12.3;61
68891;BME280;55932;48.702;8.884;2022-07-11T00:27:49;96800;;;12.3;61
68891;BME280;55932;48.702;8.884;2022-07-11T00:32:41;96800;;;12.5;61
68891;BME280;55932;48.702;8.884;2022-07-11T00:35:11;96790;;;12.6;60.5
68891;BME280;55932;48.702;8.884;2022-07-11T00:37:41;96800;;;12.6;60.5
68891;BME280;55932;48.702;8.884;2022-07-11T00:40:00;96790;;;12.6;60.5
68891;BME280;55932;48.702;8.884;2022-07-11T00:42:31;96790;;;12.7;60.5
68891;BME280;55932;48.702;8.884;2022-07-11T00:45:01;96790;;;12.7;60.5
68891;BME280;55932;48.702;8.884;2022-07-11T00:52:34;96780;;;12.7;60.5
68891;BME280;55932;48.702;8.884;2022-07-11T00:55:04;96780;;;12.7;61
68891;BME280;55932;48.702;8.884;2022-07-11T00:57:45;96770;;;12.6;61
68891;BME280;55932;48.702;8.884;2022-07-11T01:02:47;96770;;;12.5;61
68891;BME280;55932;48.702;8.884;2022-07-11T01:10:17;96770;;;12.4;61
68891;BME280;55932;48.702;8.884;2022-07-11T01:12:47;96770;;;12.5;61
68891;BME280;55932;48.702;8.884;2022-07-11T01:15:17;96770;;;12.6;61
68891;BME280;55932;48.702;8.884;2022-07-11T01:20:06;96760;;;12.6;61
68891;BME280;55932;48.702;8.884;2022-07-11T01:22:43;96760;;;12.7;61
68891;BME280;55932;48.702;8.884;2022-07-11T01:25:07;96760;;;12.7;61
68891;BME280;55932;48.702;8.884;2022-07-11T01:27:38;96760;;;12.7;61
68891;BME280;55932;48.702;8.884;2022-07-11T01:30:09;96760;;;12.6;61
68891;BME280;55932;48.702;8.884;2022-07-11T01:32:39;96760;;;12.6;61
68891;BME280;55932;48.702;8.884;2022-07-11T01:35:09;96760;;;12.7;61
68891;BME280;55932;48.702;8.884;2022-07-11T01:42:41;96750;;;12.8;61
68891;BME280;55932;48.702;8.884;2022-07-11T01:45:12;96750;;;12.9;60.5
68891;BME280;55932;48.702;8.884;2022-07-11T01:47:53;96750;;;13;60.5
68891;BME280;55932;48.702;8.884;2022-07-11T01:52:54;96750;;;13.1;60.5
68891;BME280;55932;48.702;8.884;2022-07-11T01:55:24;96750;;;13.1;60.5
68891;BME280;55932;48.702;8.884;2022-07-11T01:57:54;96750;;;13;60.5
68891;BME280;55932;48.702;8.884;2022-07-11T02:00:24;96750;;;13;61
68891;BME280;55932;48.702;8.884;2022-07-11T02:03:06;96740;;;13;61
68891;BME280;55932;48.702;8.884;2022-07-11T02:05:37;96740;;;13;61
68891;BME280;55932;48.702;8.884;2022-07-11T02:10:27;96740;;;12.9;61
68891;BME280;55932;48.702;8.884;2022-07-11T02:12:58;96740;;;12.9;61
68891;BME280;55932;48.702;8.884;2022-07-11T02:15:27;96740;;;12.8;61
68891;BME280;55932;48.702;8.884;2022-07-11T02:17:57;96740;;;12.9;61
68891;BME280;55932;48.702;8.884;2022-07-11T02:20:27;96740;;;12.9;61
68891;BME280;55932;48.702;8.884;2022-07-11T02:23:09;96740;;;12.9;61
68891;BME280;55932;48.702;8.884;2022-07-11T02:25:49;96740;;;12.9;61
68891;BME280;55932;48.702;8.884;2022-07-11T02:28:11;96740;;;12.9;61
68891;BME280;55932;48.702;8.884;2022-07-11T02:33:10;96740;;;13;61
68891;BME280;55932;48.702;8.884;2022-07-11T02:38:01;96740;;;13;60.5
68891;BME280;55932;48.702;8.884;2022-07-11T02:40:31;96730;;;13;60.5
68891;BME280;55932;48.702;8.884;2022-07-11T02:43:01;96740;;;13.1;60.5
68891;BME280;55932;48.702;8.884;2022-07-11T02:47:50;96740;;;13.1;60.5
68891;BME280;55932;48.702;8.884;2022-07-11T02:55:21;96740;;;13.2;60.5
68891;BME280;55932;48.702;8.884;2022-07-11T02:57:52;96740;;;13.2;60.5
68891;BME280;55932;48.702;8.884;2022-07-11T03:00:22;96750;;;13.2;60.5
68891;BME280;55932;48.702;8.884;2022-07-11T03:08:05;96750;;;13.4;60.5
68891;BME280;55932;48.702;8.884;2022-07-11T03:13:05;96750;;;13.4;60.5
68891;BME280;55932;48.702;8.884;2022-07-11T03:20:37;96740;;;13.5;60.5
68891;BME280;55932;48.702;8.884;2022-07-11T03:23:16;96740;;;13.4;60.5
68891;BME280;55932;48.702;8.884;2022-07-11T03:25:46;96740;;;13.5;60.5
68891;BME280;55932;48.702;8.884;2022-07-11T03:33:19;96740;;;13.5;60.5
68891;BME280;55932;48.702;8.884;2022-07-11T03:35:50;96740;;;13.6;60.5
68891;BME280;55932;48.702;8.884;2022-07-11T03:40:40;96740;;;13.6;60.5
68891;BME280;55932;48.702;8.884;2022-07-11T03:43:10;96740;;;13.7;60.5
68891;BME280;55932;48.702;8.884;2022-07-11T03:45:40;96740;;;13.7;60.5
68891;BME280;55932;48.702;8.884;2022-07-11T03:48:19;96740;;;13.7;60.5
68891;BME280;55932;48.702;8.884;2022-07-11T03:50:29;96740;;;13.7;60.5
68891;BME280;55932;48.702;8.884;2022-07-11T03:52:59;96740;;;13.8;60.5
68891;BME280;55932;48.702;8.884;2022-07-11T03:55:31;96730;;;13.7;60.5
68891;BME280;55932;48.702;8.884;2022-07-11T03:58:01;96730;;;13.7;60.5
68891;BME280;55932;48.702;8.884;2022-07-11T04:00:31;96730;;;13.8;60.5
68891;BME280;55932;48.702;8.884;2022-07-11T04:03:02;96730;;;13.9;60.5
68891;BME280;55932;48.702;8.884;2022-07-11T04:05:32;96720;;;13.9;60.5
68891;BME280;55932;48.702;8.884;2022-07-11T04:08:14;96730;;;13.9;60.5
68891;BME280;55932;48.702;8.884;2022-07-11T04:10:44;96730;;;13.9;60.5
68891;BME280;55932;48.702;8.884;2022-07-11T04:13:14;96730;;;13.9;60.5
68891;BME280;55932;48.702;8.884;2022-07-11T04:18:04;96730;;;14;60.5
68891;BME280;55932;48.702;8.884;2022-07-11T04:20:34;96730;;;14;60.5
68891;BME280;55932;48.702;8.884;2022-07-11T04:23:04;96740;;;14;60.5
68891;BME280;55932;48.702;8.884;2022-07-11T04:28:05;96740;;;14.1;60.5
68891;BME280;55932;48.702;8.884;2022-07-11T04:30:36;96730;;;14.2;60
68891;BME280;55932;48.702;8.884;2022-07-11T04:33:06;96740;;;14.3;60
68891;BME280;55932;48.702;8.884;2022-07-11T04:45:38;96730;;;14.8;59.5
68891;BME280;55932;48.702;8.884;2022-07-11T04:48:09;96720;;;14.8;59.5
68891;BME280;55932;48.702;8.884;2022-07-11T04:50:42;96720;;;14.8;59.5
68891;BME280;55932;48.702;8.884;2022-07-11T04:53:11;96720;;;14.8;59.5
68891;BME280;55932;48.702;8.884;2022-07-11T04:55:40;96730;;;14.9;59.5
68891;BME280;55932;48.702;8.884;2022-07-11T04:58:11;96730;;;15;59.5
68891;BME280;55932;48.702;8.884;2022-07-11T05:00:41;96730;;;15.1;59.5
68891;BME280;55932;48.702;8.884;2022-07-11T05:08:13;96730;;;15.2;59.5
68891;BME280;55932;48.702;8.884;2022-07-11T05:10:55;96730;;;15.2;59.5
68891;BME280;55932;48.702;8.884;2022-07-11T05:13:25;96740;;;15.2;59.5
68891;BME280;55932;48.702;8.884;2022-07-11T05:18:25;96750;;;15.4;59
68891;BME280;55932;48.702;8.884;2022-07-11T05:23:37;96740;;;15.5;59
68891;BME280;55932;48.702;8.884;2022-07-11T05:28:38;96750;;;15.6;59.5
68891;BME280;55932;48.702;8.884;2022-07-11T05:31:08;96750;;;15.8;59
68891;BME280;55932;48.702;8.884;2022-07-11T05:36:18;96760;;;16.1;58.5
68891;BME280;55932;48.702;8.884;2022-07-11T05:38:49;96760;;;16.2;58.5
68891;BME280;55932;48.702;8.884;2022-07-11T05:43:32;96760;;;16.4;58.5
68891;BME280;55932;48.702;8.884;2022-07-11T05:46:07;96750;;;16.4;58.5
68891;BME280;55932;48.702;8.884;2022-07-11T05:48:30;96750;;;16.5;58
68891;BME280;55932;48.702;8.884;2022-07-11T05:55:51;96760;;;16.8;58
68891;BME280;55932;48.702;8.884;2022-07-11T05:58:20;96760;;;16.8;58.5
68891;BME280;55932;48.702;8.884;2022-07-11T06:00:50;96750;;;17;58
68891;BME280;55932;48.702;8.884;2022-07-11T06:03:21;96760;;;17;58.5
68891;BME280;55932;48.702;8.884;2022-07-11T06:05:51;96750;;;17.3;58.5
68891;BME280;55932;48.702;8.884;2022-07-11T06:08:33;96760;;;17.5;58
68891;BME280;55932;48.702;8.884;2022-07-11T06:11:03;96760;;;17.7;57.5
68891;BME280;55932;48.702;8.884;2022-07-11T06:13:35;96760;;;17.6;57.5
68891;BME280;55932;48.702;8.884;2022-07-11T06:23:24;96760;;;18;58
68891;BME280;55932;48.702;8.884;2022-07-11T06:25:54;96760;;;18;58
68891;BME280;55932;48.702;8.884;2022-07-11T06:28:25;96760;;;18.1;57.5
68891;BME280;55932;48.702;8.884;2022-07-11T06:30:55;96760;;;18.1;57.5
68891;BME280;55932;48.702;8.884;2022-07-11T06:33:27;96760;;;18;57.5
68891;BME280;55932;48.702;8.884;2022-07-11T06:35:56;96760;;;18.1;58
68891;BME280;55932;48.702;8.884;2022-07-11T06:38:26;96760;;;18;58
68891;BME280;55932;48.702;8.884;2022-07-11T06:51:19;96760;;;18.7;57.5
68891;BME280;55932;48.702;8.884;2022-07-11T06:53:40;96760;;;19.2;56.5
68891;BME280;55932;48.702;8.884;2022-07-11T06:56:10;96770;;;19.7;56
68891;BME280;55932;48.702;8.884;2022-07-11T07:01:00;96770;;;19.6;56
68891;BME280;55932;48.702;8.884;2022-07-11T07:03:31;96770;;;19.7;56
68891;BME280;55932;48.702;8.884;2022-07-11T07:06:01;96760;;;19.7;56.5
68891;BME280;55932;48.702;8.884;2022-07-11T07:16:02;96770;;;19.6;57
68891;BME280;55932;48.702;8.884;2022-07-11T07:18:33;96760;;;19.6;56.5
68891;BME280;55932;48.702;8.884;2022-07-11T07:21:03;96760;;;20.2;55.5
68891;BME280;55932;48.702;8.884;2022-07-11T07:23:36;96760;;;20.6;55
68891;BME280;55932;48.702;8.884;2022-07-11T07:31:06;96760;;;21.5;53.5
68891;BME280;55932;48.702;8.884;2022-07-11T07:33:36;96750;;;23.5;50.5
68891;BME280;55932;48.702;8.884;2022-07-11T07:38:48;96750;;;25.9;48.5
68891;BME280;55932;48.702;8.884;2022-07-11T07:46:19;96750;;;28.3;46
68891;BME280;55932;48.702;8.884;2022-07-11T07:48:50;96750;;;28.4;46.5
68891;BME280;55932;48.702;8.884;2022-07-11T07:51:19;96740;;;28.7;46.5
68891;BME280;55932;48.702;8.884;2022-07-11T07:56:09;96740;;;29.4;46
68891;BME280;55932;48.702;8.884;2022-07-11T07:58:41;96740;;;28.6;48
68891;BME280;55932;48.702;8.884;2022-07-11T08:01:10;96740;;;28.2;48.5
68891;BME280;55932;48.702;8.884;2022-07-11T08:03:40;96740;;;28.4;48.5
68891;BME280;55932;48.702;8.884;2022-07-11T08:06:11;96730;;;29.5;47
68891;BME280;55932;48.702;8.884;2022-07-11T08:13:42;96740;;;29;48.5
68891;BME280;55932;48.702;8.884;2022-07-11T08:18:55;96730;;;29.4;47.5
68891;BME280;55932;48.702;8.884;2022-07-11T08:21:25;96730;;;27.9;50.5
68891;BME280;55932;48.702;8.884;2022-07-11T08:23:55;96730;;;28.1;51
68891;BME280;55932;48.702;8.884;2022-07-11T08:26:24;96730;;;25.8;55
68891;BME280;55932;48.702;8.884;2022-07-11T08:28:55;96740;;;23.9;57.5
68891;BME280;55932;48.702;8.884;2022-07-11T08:38:44;96720;;;25.6;54
68891;BME280;55932;48.702;8.884;2022-07-11T08:41:15;96730;;;28.8;49.5
68891;BME280;55932;48.702;8.884;2022-07-11T08:43:45;96720;;;29.2;50
68891;BME280;55932;48.702;8.884;2022-07-11T08:46:16;96730;;;26.6;54
68891;BME280;55932;48.702;8.884;2022-07-11T08:48:58;96720;;;25.1;56
68891;BME280;55932;48.702;8.884;2022-07-11T08:51:28;96720;;;25.7;55
68891;BME280;55932;48.702;8.884;2022-07-11T08:56:37;96720;;;25.4;55.5
68891;BME280;55932;48.702;8.884;2022-07-11T08:58:59;96720;;;27.3;52.5
68891;BME280;55932;48.702;8.884;2022-07-11T09:01:29;96720;;;29.3;50
68891;BME280;55932;48.702;8.884;2022-07-11T09:03:59;96730;;;28.1;52
68891;BME280;55932;48.702;8.884;2022-07-11T09:06:41;96720;;;25.5;55.5
68891;BME280;55932;48.702;8.884;2022-07-11T09:11:50;96730;;;22.9;59.5
68891;BME280;55932;48.702;8.884;2022-07-11T09:14:19;96720;;;22.4;59.5
68891;BME280;55932;48.702;8.884;2022-07-11T09:21:31;96710;;;30.9;47.5
68891;BME280;55932;48.702;8.884;2022-07-11T09:24:02;96710;;;31.7;46.5
68891;BME280;55932;48.702;8.884;2022-07-11T09:36:48;96720;;;26.5;55
68891;BME280;55932;48.702;8.884;2022-07-11T09:39:17;96720;;;24.9;58
68891;BME280;55932;48.702;8.884;2022-07-11T09:44:06;96710;;;24.6;58.5
68891;BME280;55932;48.702;8.884;2022-07-11T09:46:35;96710;;;25.2;58
68891;BME280;55932;48.702;8.884;2022-07-11T09:51:36;96720;;;25.5;56
68891;BME280;55932;48.702;8.884;2022-07-11T09:59:18;96720;;;25.4;56.5
68891;BME280;55932;48.702;8.884;2022-07-11T10:01:49;96720;;;25.2;57
68891;BME280;55932;48.702;8.884;2022-07-11T10:12:00;96720;;;26.7;55
68891;BME280;55932;48.702;8.884;2022-07-11T10:14:22;96720;;;26.6;55
68891;BME280;55932;48.702;8.884;2022-07-11T10:19:30;96730;;;26.4;55.5
68891;BME280;55932;48.702;8.884;2022-07-11T10:24:17;96730;;;24.7;57.5
68891;BME280;55932;48.702;8.884;2022-07-11T10:29:14;96720;;;26.2;56.5
68891;BME280;55932;48.702;8.884;2022-07-11T10:31:42;96720;;;26.4;56
68891;BME280;55932;48.702;8.884;2022-07-11T10:34:12;96720;;;26.7;55
68891;BME280;55932;48.702;8.884;2022-07-11T10:46:32;96720;;;27.6;54.5
68891;BME280;55932;48.702;8.884;2022-07-11T10:49:09;96720;;;26.1;56.5
68891;BME280;55932;48.702;8.884;2022-07-11T10:51:37;96720;;;24.9;57.5
68891;BME280;55932;48.702;8.884;2022-07-11T10:54:11;96710;;;26.8;56
68891;BME280;55932;48.702;8.884;2022-07-11T10:56:41;96720;;;28.1;54
68891;BME280;55932;48.702;8.884;2022-07-11T11:06:58;96720;;;28.4;53
68891;BME280;55932;48.702;8.884;2022-07-11T11:09:36;96710;;;27.6;53.5
68891;BME280;55932;48.702;8.884;2022-07-11T11:12:00;96720;;;27.4;54
68891;BME280;55932;48.702;8.884;2022-07-11T11:14:40;96720;;;26.6;55
68891;BME280;55932;48.702;8.884;2022-07-11T11:19:55;96720;;;27.5;54.5
68891;BME280;55932;48.702;8.884;2022-07-11T11:22:13;96720;;;27;55
68891;BME280;55932;48.702;8.884;2022-07-11T11:29:24;96710;;;28.2;53.5
68891;BME280;55932;48.702;8.884;2022-07-11T11:31:54;96710;;;26.9;55
68891;BME280;55932;48.702;8.884;2022-07-11T11:34:23;96720;;;25.9;55.5
68891;BME280;55932;48.702;8.884;2022-07-11T11:39:20;96710;;;26.5;55
68891;BME280;55932;48.702;8.884;2022-07-11T11:47:06;96700;;;25.5;56.5
68891;BME280;55932;48.702;8.884;2022-07-11T11:49:41;96710;;;26.1;56
68891;BME280;55932;48.702;8.884;2022-07-11T11:57:09;96710;;;26.9;54.5
68891;BME280;55932;48.702;8.884;2022-07-11T11:59:42;96710;;;26.2;55.5
68891;BME280;55932;48.702;8.884;2022-07-11T12:02:10;96700;;;26.2;55.5
68891;BME280;55932;48.702;8.884;2022-07-11T12:04:30;96700;;;26.4;54.5
68891;BME280;55932;48.702;8.884;2022-07-11T12:06:59;96700;;;26.1;55.5
68891;BME280;55932;48.702;8.884;2022-07-11T12:09:32;96710;;;25.4;56
68891;BME280;55932;48.702;8.884;2022-07-11T12:11:48;96700;;;25.4;55.5
68891;BME280;55932;48.702;8.884;2022-07-11T12:14:18;96700;;;27;54.5
68891;BME280;55932;48.702;8.884;2022-07-11T12:19:42;96700;;;28.7;52.5
68891;BME280;55932;48.702;8.884;2022-07-11T12:22:13;96700;;;28.4;52.5
68891;BME280;55932;48.702;8.884;2022-07-11T12:24:47;96700;;;28.2;52.5
68891;BME280;55932;48.702;8.884;2022-07-11T12:29:44;96690;;;27;54
68891;BME280;55932;48.702;8.884;2022-07-11T12:32:14;96700;;;27.7;53.5
68891;BME280;55932;48.702;8.884;2022-07-11T12:34:45;96700;;;28.1;53.5
68891;BME280;55932;48.702;8.884;2022-07-11T12:37:35;96700;;;27.5;54
68891;BME280;55932;48.702;8.884;2022-07-11T12:44:35;96690;;;28.7;52.5
68891;BME280;55932;48.702;8.884;2022-07-11T12:49:36;96690;;;27.7;54
68891;BME280;55932;48.702;8.884;2022-07-11T12:52:06;96690;;;29.7;52
68891;BME280;55932;48.702;8.884;2022-07-11T12:54:36;96680;;;29.6;52
68891;BME280;55932;48.702;8.884;2022-07-11T12:57:16;96680;;;28;53.5
68891;BME280;55932;48.702;8.884;2022-07-11T12:59:39;96670;;;27.2;54
68891;BME280;55932;48.702;8.884;2022-07-11T13:02:07;96680;;;26.3;55
68891;BME280;55932;48.702;8.884;2022-07-11T13:06:57;96670;;;25.6;56
68891;BME280;55932;48.702;8.884;2022-07-11T13:09:26;96670;;;25.8;55.5
68891;BME280;55932;48.702;8.884;2022-07-11T13:11:56;96670;;;26.3;55.5
68891;BME280;55932;48.702;8.884;2022-07-11T13:19:28;96660;;;30.9;50
68891;BME280;55932;48.702;8.884;2022-07-11T13:21:59;96660;;;30.3;50.5
68891;BME280;55932;48.702;8.884;2022-07-11T13:32:23;96670;;;30.2;51
68891;BME280;55932;48.702;8.884;2022-07-11T13:34:54;96670;;;27.9;52.5
68891;BME280;55932;48.702;8.884;2022-07-11T13:37:27;96680;;;26.4;54
68891;BME280;55932;48.702;8.884;2022-07-11T13:39:55;96680;;;26;55
68891;BME280;55932;48.702;8.884;2022-07-11T13:42:25;96680;;;25.9;55
68891;BME280;55932;48.702;8.884;2022-07-11T13:49:54;96680;;;27.7;53.5
68891;BME280;55932;48.702;8.884;2022-07-11T13:52:15;96680;;;29;52.5
68891;BME280;55932;48.702;8.884;2022-07-11T13:54:45;96670;;;30;51.5
68891;BME280;55932;48.702;8.884;2022-07-11T13:59:34;96670;;;29.7;52
68891;BME280;55932;48.702;8.884;2022-07-11T14:02:05;96680;;;29.6;51.5
68891;BME280;55932;48.702;8.884;2022-07-11T14:04:35;96680;;;28.5;53
68891;BME280;55932;48.702;8.884;2022-07-11T14:12:07;96680;;;26.4;55
68891;BME280;55932;48.702;8.884;2022-07-11T14:14:37;96670;;;26.3;55.5
68891;BME280;55932;48.702;8.884;2022-07-11T14:17:30;96670;;;26.1;55.5
68891;BME280;55932;48.702;8.884;2022-07-11T14:20:09;96670;;;25.3;56
68891;BME280;55932;48.702;8.884;2022-07-11T14:22:42;96680;;;24.8;56
68891;BME280;55932;48.702;8.884;2022-07-11T14:27:21;96680;;;24.1;56.5
68891;BME280;55932;48.702;8.884;2022-07-11T14:29:52;96680;;;24.1;56.5
68891;BME280;55932;48.702;8.884;2022-07-11T14:32:21;96680;;;24.6;55.5
68891;BME280;55932;48.702;8.884;2022-07-11T14:39:42;96660;;;29.5;51.5
68891;BME280;55932;48.702;8.884;2022-07-11T14:42:13;96660;;;30.7;50
68891;BME280;55932;48.702;8.884;2022-07-11T14:44:43;96660;;;31.1;49
68891;BME280;55932;48.702;8.884;2022-07-11T14:47:14;96660;;;30.4;49.5
68891;BME280;55932;48.702;8.884;2022-07-11T14:49:55;96670;;;28.3;51
68891;BME280;55932;48.702;8.884;2022-07-11T14:54:56;96660;;;27.2;53
68891;BME280;55932;48.702;8.884;2022-07-11T14:57:29;96670;;;27.6;53
68891;BME280;55932;48.702;8.884;2022-07-11T14:59:56;96670;;;27.2;53.5
68891;BME280;55932;48.702;8.884;2022-07-11T15:04:57;96680;;;25.8;54.5
68891;BME280;55932;48.702;8.884;2022-07-11T15:07:27;96670;;;25.4;55
68891;BME280;55932;48.702;8.884;2022-07-11T15:09:57;96670;;;24.8;55.5
68891;BME280;55932;48.702;8.884;2022-07-11T15:12:39;96670;;;24.7;56
68891;BME280;55932;48.702;8.884;2022-07-11T15:15:09;96670;;;24.7;56
68891;BME280;55932;48.702;8.884;2022-07-11T15:19:59;96660;;;26.6;54
68891;BME280;55932;48.702;8.884;2022-07-11T15:22:29;96660;;;26.2;54
68891;BME280;55932;48.702;8.884;2022-07-11T15:24:59;96670;;;25.1;54.5
68891;BME280;55932;48.702;8.884;2022-07-11T15:27:29;96670;;;24.9;55.5
68891;BME280;55932;48.702;8.884;2022-07-11T15:30:00;96670;;;26.4;54
68891;BME280;55932;48.702;8.884;2022-07-11T15:32:30;96670;;;27.5;53
68891;BME280;55932;48.702;8.884;2022-07-11T15:39:49;96680;;;24.3;55.5
68891;BME280;55932;48.702;8.884;2022-07-11T15:42:19;96670;;;24.5;56
68891;BME280;55932;48.702;8.884;2022-07-11T15:44:50;96670;;;24.7;56
68891;BME280;55932;48.702;8.884;2022-07-11T15:47:20;96670;;;24.7;55.5
68891;BME280;55932;48.702;8.884;2022-07-11T15:50:03;96670;;;24.4;55.5
68891;BME280;55932;48.702;8.884;2022-07-11T15:52:32;96680;;;24;56
68891;BME280;55932;48.702;8.884;2022-07-11T15:55:03;96680;;;23.5;56.5
68891;BME280;55932;48.702;8.884;2022-07-11T15:57:22;96670;;;23;57
68891;BME280;55932;48.702;8.884;2022-07-11T15:59:53;96670;;;22.9;57
68891;BME280;55932;48.702;8.884;2022-07-11T16:07:24;96670;;;23;56.5
68891;BME280;55932;48.702;8.884;2022-07-11T16:09:55;96670;;;22.8;56.5
68891;BME280;55932;48.702;8.884;2022-07-11T16:12:25;96670;;;22.7;57
68891;BME280;55932;48.702;8.884;2022-07-11T16:17:38;96680;;;23.5;56.5
68891;BME280;55932;48.702;8.884;2022-07-11T16:20:08;96670;;;24.8;55.5
68891;BME280;55932;48.702;8.884;2022-07-11T16:22:38;96670;;;26.5;53.5
68891;BME280;55932;48.702;8.884;2022-07-11T16:25:08;96680;;;28;51
68891;BME280;55932;48.702;8.884;2022-07-11T16:37:29;96670;;;28.8;51.5
68891;BME280;55932;48.702;8.884;2022-07-11T16:39:59;96680;;;28.4;52
68891;BME280;55932;48.702;8.884;2022-07-11T16:42:30;96670;;;28.1;52.5
68891;BME280;55932;48.702;8.884;2022-07-11T16:45:00;96670;;;27.7;52.5
68891;BME280;55932;48.702;8.884;2022-07-11T16:47:30;96680;;;27.3;53
68891;BME280;55932;48.702;8.884;2022-07-11T16:50:02;96680;;;27;53
68891;BME280;55932;48.702;8.884;2022-07-11T16:57:33;96680;;;23.8;55.5
68891;BME280;55932;48.702;8.884;2022-07-11T17:08:06;96680;;;22.5;57
68891;BME280;55932;48.702;8.884;2022-07-11T17:10:27;96680;;;22.6;56.5
68891;BME280;55932;48.702;8.884;2022-07-11T17:15:17;96680;;;22.2;57
68891;BME280;55932;48.702;8.884;2022-07-11T17:17:51;96680;;;22.1;57
68891;BME280;55932;48.702;8.884;2022-07-11T17:20:18;96680;;;21.7;57.5
68891;BME280;55932;48.702;8.884;2022-07-11T17:22:48;96680;;;21.6;57.5
68891;BME280;55932;48.702;8.884;2022-07-11T17:25:07;96680;;;21.4;58
68891;BME280;55932;48.702;8.884;2022-07-11T17:30:08;96680;;;21.1;58
68891;BME280;55932;48.702;8.884;2022-07-11T17:32:39;96680;;;21.1;58
68891;BME280;55932;48.702;8.884;2022-07-11T17:35:09;96680;;;20.9;58.5
68891;BME280;55932;48.702;8.884;2022-07-11T17:37:40;96680;;;20.9;58.5
68891;BME280;55932;48.702;8.884;2022-07-11T17:40:10;96680;;;20.9;58.5
68891;BME280;55932;48.702;8.884;2022-07-11T17:42:41;96680;;;21.1;58
68891;BME280;55932;48.702;8.884;2022-07-11T17:52:42;96680;;;22.2;56.5
68891;BME280;55932;48.702;8.884;2022-07-11T18:00:25;96680;;;22.3;56.5
68891;BME280;55932;48.702;8.884;2022-07-11T18:02:55;96690;;;22.2;56.5
68891;BME280;55932;48.702;8.884;2022-07-11T18:05:25;96690;;;22.1;57
68891;BME280;55932;48.702;8.884;2022-07-11T18:07:45;96690;;;22;57
68891;BME280;55932;48.702;8.884;2022-07-11T18:10:15;96690;;;21.8;57
68891;BME280;55932;48.702;8.884;2022-07-11T18:20:17;96680;;;21.3;58
68891;BME280;55932;48.702;8.884;2022-07-11T18:22:47;96680;;;21.1;58
68891;BME280;55932;48.702;8.884;2022-07-11T18:25:18;96680;;;21;58
68891;BME280;55932;48.702;8.884;2022-07-11T18:27:48;96680;;;20.8;58.5
68891;BME280;55932;48.702;8.884;2022-07-11T18:33:12;96680;;;20.4;59
68891;BME280;55932;48.702;8.884;2022-07-11T18:35:43;96680;;;20.3;59
68891;BME280;55932;48.702;8.884;2022-07-11T18:38:13;96690;;;20.1;59
68891;BME280;55932;48.702;8.884;2022-07-11T18:40:32;96690;;;20;59
68891;BME280;55932;48.702;8.884;2022-07-11T18:43:02;96690;;;19.9;59
68891;BME280;55932;48.702;8.884;2022-07-11T18:45:41;96700;;;19.8;59.5
68891;BME280;55932;48.702;8.884;2022-07-11T18:50:23;96700;;;19.6;59.5
68891;BME280;55932;48.702;8.884;2022-07-11T18:52:53;96710;;;19.5;59.5
68891;BME280;55932;48.702;8.884;2022-07-11T18:55:23;96700;;;19.4;59.5
68891;BME280;55932;48.702;8.884;2022-07-11T18:57:53;96700;;;19.3;59.5
68891;BME280;55932;48.702;8.884;2022-07-11T19:00:23;96710;;;19.2;59.5
68891;BME280;55932;48.702;8.884;2022-07-11T19:02:54;96710;;;19;59.5
68891;BME280;55932;48.702;8.884;2022-07-11T19:10:26;96710;;;18.4;60.5
68891;BME280;55932;48.702;8.884;2022-07-11T19:13:19;96720;;;18.2;60.5
68891;BME280;55932;48.702;8.884;2022-07-11T19:15:49;96720;;;18;60.5
68891;BME280;55932;48.702;8.884;2022-07-11T19:18:29;96720;;;17.9;60.5
68891;BME280;55932;48.702;8.884;2022-07-11T19:21:00;96710;;;17.7;60.5
68891;BME280;55932;48.702;8.884;2022-07-11T19:28:15;96720;;;17.3;60.5
68891;BME280;55932;48.702;8.884;2022-07-11T19:30:40;96720;;;17.2;61
68891;BME280;55932;48.702;8.884;2022-07-11T19:33:10;96730;;;17.1;60.5
68891;BME280;55932;48.702;8.884;2022-07-11T19:38:00;96730;;;16.9;61
68891;BME280;55932;48.702;8.884;2022-07-11T19:40:30;96730;;;16.8;61
68891;BME280;55932;48.702;8.884;2022-07-11T19:43:12;96740;;;16.7;61
68891;BME280;55932;48.702;8.884;2022-07-11T19:45:43;96730;;;16.6;61
68891;BME280;55932;48.702;8.884;2022-07-11T19:48:12;96740;;;16.5;61
68891;BME280;55932;48.702;8.884;2022-07-11T19:55:55;96740;;;16.4;60.5
68891;BME280;55932;48.702;8.884;2022-07-11T19:58:25;96740;;;16.4;60.5
68891;BME280;55932;48.702;8.884;2022-07-11T20:00:56;96750;;;16.3;60.5
68891;BME280;55932;48.702;8.884;2022-07-11T20:03:15;96750;;;16.2;61
68891;BME280;55932;48.702;8.884;2022-07-11T20:13:16;96750;;;15.8;61
68891;BME280;55932;48.702;8.884;2022-07-11T20:15:46;96750;;;15.8;61
68891;BME280;55932;48.702;8.884;2022-07-11T20:20:58;96740;;;15.7;61
68891;BME280;55932;48.702;8.884;2022-07-11T20:23:29;96740;;;15.7;61
68891;BME280;55932;48.702;8.884;2022-07-11T20:26:00;96740;;;15.6;61
68891;BME280;55932;48.702;8.884;2022-07-11T20:28:19;96750;;;15.5;61
68891;BME280;55932;48.702;8.884;2022-07-11T20:43:21;96760;;;15.2;61
68891;BME280;55932;48.702;8.884;2022-07-11T20:45:51;96760;;;15.2;61
68891;BME280;55932;48.702;8.884;2022-07-11T20:48:21;96760;;;15.2;61
68891;BME280;55932;48.702;8.884;2022-07-11T20:50:41;96760;;;15.2;61
68891;BME280;55932;48.702;8.884;2022-07-11T20:53:12;96760;;;15.2;61
68891;BME280;55932;48.702;8.884;2022-07-11T21:03:13;96760;;;15.1;61
68891;BME280;55932;48.702;8.884;2022-07-11T21:08:14;96760;;;14.9;61
68891;BME280;55932;48.702;8.884;2022-07-11T21:10:44;96760;;;14.8;61
68891;BME280;55932;48.702;8.884;2022-07-11T21:13:15;96780;;;14.6;61.5
68891;BME280;55932;48.702;8.884;2022-07-11T21:15:45;96780;;;14.6;61
68891;BME280;55932;48.702;8.884;2022-07-11T21:18:16;96770;;;14.5;61.5
68891;BME280;55932;48.702;8.884;2022-07-11T21:25:59;96780;;;14.4;61.5
68891;BME280;55932;48.702;8.884;2022-07-11T21:28:38;96780;;;14.4;61
68891;BME280;55932;48.702;8.884;2022-07-11T21:31:09;96780;;;14.5;61